createdAt,value
2023-02-28T12:03:31.451Z,0.00
2023-02-28T12:03:44.938Z,8716.00
2023-02-28T12:03:57.593Z,8596.00
2023-02-28T12:04:09.308Z,8780.00
2023-02-28T12:04:22.502Z,9992.00
2023-02-28T12:04:39.923Z,10308.00
2023-02-28T12:04:55.791Z,10276.00
2023-02-28T12:05:11.649Z,9904.00
2023-02-28T12:05:24.519Z,10052.00
2023-02-28T12:05:37.394Z,10260.00
2023-02-28T12:05:49.232Z,10372.00
2023-02-28T12:06:03.121Z,10648.00
2023-02-28T12:06:14.988Z,10136.00
2023-02-28T12:06:49.769Z,0.00
2023-02-28T12:07:00.552Z,10816.00
2023-02-28T12:07:14.553Z,10768.00
2023-02-28T12:07:27.148Z,9016.00
2023-02-28T12:07:41.398Z,9756.00
2023-02-28T12:07:52.236Z,8932.00
2023-02-28T12:08:04.077Z,9000.00
2023-02-28T12:08:14.909Z,9108.00
2023-02-28T12:08:27.218Z,9220.00
2023-02-28T12:08:40.129Z,9272.00
2023-02-28T12:08:52.648Z,9276.00
2023-02-28T12:09:04.519Z,9220.00
2023-02-28T12:09:16.310Z,9068.00
2023-02-28T12:09:29.527Z,8860.00
2023-02-28T12:10:01.616Z,0.00
2023-02-28T12:10:16.462Z,8332.00
2023-02-28T12:10:29.007Z,8212.00
2023-02-28T12:10:41.879Z,8132.00
2023-02-28T12:10:53.716Z,8088.00
2023-02-28T12:11:07.136Z,8056.00
2023-02-28T12:11:19.101Z,8016.00
2023-02-28T12:11:33.086Z,7968.00
2023-02-28T12:11:46.446Z,7964.00
2023-02-28T12:11:59.731Z,8180.00
2023-02-28T12:12:12.814Z,8944.00
2023-02-28T12:12:27.787Z,9992.00
2023-02-28T12:12:41.665Z,10268.00
2023-02-28T12:12:55.774Z,10308.00
2023-02-28T12:13:09.596Z,10168.00
2023-02-28T12:13:24.085Z,9732.00
2023-02-28T12:13:37.955Z,8688.00
2023-02-28T12:13:53.824Z,8152.00
2023-02-28T12:14:08.197Z,8000.00
2023-02-28T12:14:22.044Z,8416.00
2023-02-28T12:14:36.002Z,8464.00
2023-02-28T12:14:48.900Z,7996.00
2023-02-28T12:15:01.767Z,7856.00
2023-02-28T12:15:15.173Z,7780.00
2023-02-28T12:15:27.785Z,7708.00
2023-02-28T12:15:39.789Z,7660.00
2023-02-28T12:15:55.750Z,7640.00
2023-02-28T12:16:08.277Z,7776.00
2023-02-28T12:16:22.126Z,7628.00
2023-02-28T12:17:02.097Z,0.00
2023-02-28T12:17:15.643Z,7564.00
2023-02-28T12:17:27.724Z,7612.00
2023-02-28T12:17:40.875Z,7648.00
2023-02-28T12:17:53.144Z,7788.00
2023-02-28T12:18:08.833Z,7692.00
2023-02-28T12:18:20.904Z,8284.00
2023-02-28T12:18:34.244Z,7596.00
2023-02-28T12:18:46.091Z,7520.00
2023-02-28T12:18:58.127Z,7524.00
2023-02-28T12:19:10.313Z,7576.00
2023-02-28T12:19:23.665Z,7644.00
2023-02-28T12:19:36.490Z,7692.00
2023-02-28T12:19:49.327Z,7700.00
2023-02-28T12:20:02.606Z,7696.00
2023-02-28T12:20:14.815Z,7724.00
2023-02-28T12:20:27.528Z,7688.00
2023-02-28T12:20:39.473Z,7820.00
2023-02-28T12:20:53.335Z,8016.00
2023-02-28T12:21:05.694Z,9248.00
2023-02-28T12:21:18.313Z,10020.00
2023-02-28T12:21:31.008Z,10100.00
2023-02-28T12:21:43.668Z,9292.00
2023-02-28T12:21:56.007Z,8792.00
2023-02-28T12:22:08.445Z,9464.00
2023-02-28T12:22:19.504Z,10076.00
2023-02-28T12:22:32.820Z,10136.00
2023-02-28T12:22:44.906Z,10124.00
2023-02-28T12:22:59.342Z,10172.00
2023-02-28T12:23:12.174Z,10212.00
2023-02-28T12:23:24.280Z,10240.00
2023-02-28T12:23:37.197Z,10232.00
2023-02-28T12:23:50.010Z,10204.00
2023-02-28T12:24:03.999Z,10172.00
2023-02-28T12:24:16.725Z,10140.00
2023-02-28T12:24:30.594Z,10116.00
2023-02-28T12:24:43.759Z,10108.00
2023-02-28T12:24:56.933Z,10092.00
2023-02-28T12:25:08.895Z,10040.00
2023-02-28T12:25:22.071Z,10024.00
2023-02-28T12:25:39.587Z,10016.00
2023-02-28T12:25:52.436Z,10004.00
2023-02-28T12:26:06.429Z,9984.00
2023-02-28T12:26:18.358Z,9568.00
2023-02-28T12:26:32.237Z,9208.00
2023-02-28T12:26:45.104Z,8148.00
2023-02-28T12:26:57.088Z,8036.00
2023-02-28T12:27:10.672Z,8576.00
2023-02-28T12:27:25.832Z,7964.00
2023-02-28T12:27:37.687Z,7752.00
2023-02-28T12:28:02.862Z,7924.00
2023-02-28T12:28:15.356Z,9180.00
2023-02-28T12:28:27.430Z,9228.00
2023-02-28T12:28:41.067Z,9220.00
2023-02-28T12:28:54.019Z,7836.00
2023-02-28T12:29:05.125Z,7720.00
2023-02-28T12:29:18.826Z,7932.00
2023-02-28T12:29:34.765Z,9732.00
2023-02-28T12:29:54.298Z,9516.00
2023-02-28T12:30:07.430Z,9444.00
2023-02-28T12:30:23.947Z,9324.00
2023-02-28T12:30:42.415Z,9900.00
2023-02-28T12:30:55.857Z,10124.00
2023-02-28T12:31:10.533Z,10128.00
2023-02-28T12:31:22.971Z,10040.00
2023-02-28T12:31:36.441Z,10000.00
2023-02-28T12:31:49.932Z,10000.00
2023-02-28T12:32:02.664Z,10040.00
2023-02-28T12:32:13.791Z,10064.00
2023-02-28T12:32:55.649Z,0.00
2023-02-28T12:33:07.548Z,10092.00
2023-02-28T12:33:19.690Z,10104.00
2023-02-28T12:33:31.515Z,10116.00
2023-02-28T12:33:43.425Z,10136.00
2023-02-28T12:33:55.522Z,10160.00
2023-02-28T12:34:08.649Z,10180.00
2023-02-28T12:34:21.299Z,10184.00
2023-02-28T12:34:33.058Z,10200.00
2023-02-28T12:34:45.939Z,10220.00
2023-02-28T12:34:58.288Z,10260.00
2023-02-28T12:35:10.192Z,10284.00
2023-02-28T12:35:28.751Z,10316.00
2023-02-28T12:35:44.484Z,10388.00
2023-02-28T12:35:56.999Z,10444.00
2023-02-28T12:36:10.146Z,10500.00
2023-02-28T12:36:22.551Z,10568.00
2023-02-28T12:36:34.826Z,10612.00
2023-02-28T12:36:48.424Z,10652.00
2023-02-28T12:37:02.201Z,10700.00
2023-02-28T12:37:14.087Z,10748.00
2023-02-28T12:37:27.046Z,10796.00
2023-02-28T12:37:41.918Z,10836.00
2023-02-28T12:38:23.075Z,0.00
2023-02-28T12:38:38.447Z,10992.00
2023-02-28T12:38:52.365Z,10992.00
2023-02-28T12:39:04.950Z,11024.00
2023-02-28T12:39:18.846Z,11048.00
2023-02-28T12:39:31.187Z,11072.00
2023-02-28T12:39:50.145Z,11084.00
2023-02-28T12:40:03.050Z,11092.00
2023-02-28T12:40:14.665Z,11096.00
2023-02-28T12:40:26.650Z,11100.00
2023-02-28T12:40:47.030Z,11100.00
2023-02-28T12:40:59.468Z,11088.00
2023-02-28T12:41:16.666Z,11100.00
2023-02-28T12:41:29.093Z,11056.00
2023-02-28T12:41:41.093Z,11000.00
2023-02-28T12:42:00.273Z,10936.00
2023-02-28T12:42:19.031Z,10804.00
2023-02-28T12:42:31.913Z,10720.00
2023-02-28T12:42:43.888Z,10700.00
2023-02-28T12:42:56.851Z,10700.00
2023-02-28T12:43:08.518Z,10720.00
2023-02-28T12:43:21.467Z,10760.00
2023-02-28T12:43:47.096Z,10796.00
2023-02-28T12:43:59.689Z,10868.00
2023-02-28T12:44:50.994Z,0.00
2023-02-28T12:45:03.541Z,11000.00
2023-02-28T12:45:16.269Z,10968.00
2023-02-28T12:45:30.637Z,10944.00
2023-02-28T12:45:44.538Z,10920.00
2023-02-28T12:46:35.701Z,0.00
2023-02-28T12:46:48.104Z,10604.00
2023-02-28T12:47:00.462Z,10580.00
2023-02-28T12:47:17.836Z,10560.00
2023-02-28T12:47:29.904Z,10640.00
2023-02-28T12:47:44.385Z,10708.00
2023-02-28T12:49:34.245Z,0.00
2023-02-28T12:49:47.197Z,11812.00
2023-02-28T12:50:41.119Z,0.00
2023-02-28T12:50:53.717Z,12052.00
2023-02-28T12:51:07.540Z,12000.00
2023-02-28T12:51:20.492Z,11920.00
2023-02-28T12:51:33.763Z,11840.00
2023-02-28T12:51:45.790Z,11712.00
2023-02-28T12:51:59.715Z,11584.00
2023-02-28T12:52:12.300Z,11424.00
2023-02-28T12:52:26.170Z,11616.00
2023-02-28T12:52:39.221Z,11904.00
2023-02-28T12:52:51.731Z,12128.00
2023-02-28T12:53:07.861Z,12244.00
2023-02-28T12:53:23.278Z,12288.00
2023-02-28T12:53:36.239Z,12164.00
2023-02-28T12:53:49.634Z,11964.00
2023-02-28T12:54:02.678Z,11812.00
2023-02-28T12:54:16.071Z,11804.00
2023-02-28T12:54:28.784Z,11916.00
2023-02-28T12:54:41.452Z,12040.00
2023-02-28T12:55:39.444Z,0.00
2023-02-28T12:55:52.238Z,13200.00
2023-02-28T12:56:07.354Z,14068.00
2023-02-28T12:56:33.235Z,15252.00
2023-02-28T12:56:49.059Z,18688.00
2023-02-28T12:57:03.046Z,20192.00
2023-02-28T12:57:15.464Z,22816.00
2023-02-28T12:57:31.183Z,24544.00
2023-02-28T12:57:44.225Z,24832.00
2023-02-28T12:57:56.303Z,23744.00
2023-02-28T12:58:09.097Z,23200.00
2023-02-28T12:58:21.951Z,21984.00
2023-02-28T12:58:34.255Z,20928.00
2023-02-28T12:58:48.115Z,19168.00
2023-02-28T12:59:21.207Z,0.00
2023-02-28T12:59:33.545Z,13100.00
2023-02-28T12:59:45.409Z,12952.00
2023-02-28T12:59:56.484Z,12824.00
2023-02-28T13:00:08.564Z,12728.00
2023-02-28T13:00:20.944Z,12588.00
2023-02-28T13:00:33.842Z,12464.00
2023-02-28T13:00:45.704Z,12364.00
2023-02-28T13:00:57.600Z,12280.00
2023-02-28T13:01:09.919Z,12256.00
2023-02-28T13:01:20.874Z,12220.00
2023-02-28T13:01:33.493Z,12176.00
2023-02-28T13:01:46.143Z,12120.00
2023-02-28T13:01:56.937Z,12068.00
2023-02-28T13:02:08.885Z,12044.00
2023-02-28T13:02:21.609Z,12008.00
2023-02-28T13:03:02.386Z,0.00
2023-02-28T13:03:14.188Z,11916.00
2023-02-28T13:03:24.921Z,11876.00
2023-02-28T13:03:37.993Z,11804.00
2023-02-28T13:03:52.793Z,11720.00
2023-02-28T13:04:04.484Z,11656.00
2023-02-28T13:04:16.780Z,11620.00
2023-02-28T13:04:29.836Z,11580.00
2023-02-28T13:04:41.561Z,11576.00
2023-02-28T13:04:52.323Z,11728.00
2023-02-28T13:05:03.339Z,11856.00
2023-02-28T13:05:14.096Z,11948.00
2023-02-28T13:05:24.841Z,12024.00
2023-02-28T13:05:35.609Z,12044.00
2023-02-28T13:05:46.394Z,12064.00
2023-02-28T13:05:57.152Z,12068.00
2023-02-28T13:06:07.946Z,12048.00
2023-02-28T13:06:18.722Z,11980.00
2023-02-28T13:06:29.482Z,11888.00
2023-02-28T13:06:41.205Z,11832.00
2023-02-28T13:06:52.008Z,11824.00
2023-02-28T13:07:03.724Z,11888.00
2023-02-28T13:07:15.444Z,11936.00
2023-02-28T13:07:26.185Z,11980.00
2023-02-28T13:07:37.186Z,12012.00
2023-02-28T13:07:48.020Z,12048.00
2023-02-28T13:07:58.785Z,12076.00
2023-02-28T13:08:10.490Z,12120.00
2023-02-28T13:08:21.278Z,12172.00
2023-02-28T13:08:32.108Z,12232.00
2023-02-28T13:08:43.852Z,12280.00
2023-02-28T13:08:54.684Z,12316.00
2023-02-28T13:09:05.442Z,12328.00
2023-02-28T13:09:16.245Z,12340.00
2023-02-28T13:09:27.953Z,12344.00
2023-02-28T13:09:39.931Z,12372.00
2023-02-28T13:09:50.690Z,12420.00
2023-02-28T13:10:01.517Z,12512.00
2023-02-28T13:10:13.218Z,12776.00
2023-02-28T13:10:24.905Z,13980.00
2023-02-28T13:10:36.579Z,15956.00
2023-02-28T13:10:47.339Z,18336.00
2023-02-28T13:11:00.101Z,20512.00
2023-02-28T13:11:20.978Z,23648.00
2023-02-28T13:11:26.782Z,27872.00
2023-02-28T13:11:37.973Z,30592.00
2023-02-28T13:11:49.829Z,33760.00
2023-02-28T13:12:01.526Z,37024.00
2023-02-28T13:12:12.268Z,40128.00
2023-02-28T13:12:23.012Z,42592.00
2023-02-28T13:12:33.774Z,44832.00
2023-02-28T13:12:45.479Z,46720.00
2023-02-28T13:12:56.247Z,48160.00
2023-02-28T13:13:07.304Z,49152.00
2023-02-28T13:13:18.963Z,49280.00
2023-02-28T13:13:31.121Z,49344.00
2023-02-28T13:13:42.676Z,49184.00
2023-02-28T13:13:53.412Z,49184.00
2023-02-28T13:14:04.947Z,49120.00
2023-02-28T13:14:40.477Z,0.00
2023-02-28T13:14:52.139Z,49184.00
2023-02-28T13:15:03.848Z,49408.00
2023-02-28T13:15:14.598Z,49568.00
2023-02-28T13:15:25.390Z,50016.00
2023-02-28T13:15:36.132Z,49920.00
2023-02-28T13:15:46.884Z,50240.00
2023-02-28T13:15:57.656Z,50208.00
2023-02-28T13:16:08.397Z,50368.00
2023-02-28T13:16:19.165Z,50240.00
2023-02-28T13:16:30.875Z,50464.00
2023-02-28T13:16:41.644Z,50144.00
2023-02-28T13:16:53.437Z,49888.00
2023-02-28T13:17:04.216Z,50176.00
2023-02-28T13:17:15.904Z,49920.00
2023-02-28T13:17:26.706Z,50208.00
2023-02-28T13:17:37.449Z,50784.00
2023-02-28T13:17:48.192Z,52064.00
2023-02-28T13:17:59.345Z,52704.00
2023-02-28T13:18:10.130Z,53088.00
2023-02-28T13:18:20.886Z,53408.00
2023-02-28T13:18:31.628Z,53664.00
2023-02-28T13:18:42.382Z,53728.00
2023-02-28T13:18:53.119Z,53696.00
2023-02-28T13:19:03.995Z,53792.00
2023-02-28T13:19:14.761Z,53536.00
2023-02-28T13:19:27.010Z,52960.00
2023-02-28T13:19:39.754Z,51904.00
2023-02-28T13:19:52.269Z,51008.00
2023-02-28T13:20:03.500Z,51264.00
2023-02-28T13:20:15.857Z,51200.00
2023-02-28T13:20:30.122Z,51264.00
2023-02-28T13:20:42.793Z,51392.00
2023-02-28T13:21:21.388Z,0.00
2023-02-28T13:21:33.963Z,52320.00
2023-02-28T13:21:49.432Z,52928.00
2023-02-28T13:22:00.649Z,53536.00
2023-02-28T13:22:12.731Z,54048.00
2023-02-28T13:22:25.289Z,54272.00
2023-02-28T13:22:37.611Z,54240.00
2023-02-28T13:22:49.950Z,53856.00
2023-02-28T13:23:02.458Z,53056.00
2023-02-28T13:23:15.711Z,51680.00
2023-02-28T13:23:28.980Z,50272.00
2023-02-28T13:23:41.324Z,50208.00
2023-02-28T13:23:55.161Z,50336.00
2023-02-28T13:24:07.902Z,50528.00
2023-02-28T13:24:21.140Z,50848.00
2023-02-28T13:25:01.553Z,0.00
2023-02-28T13:25:14.130Z,49728.00
2023-02-28T13:25:26.679Z,50208.00
2023-02-28T13:25:39.440Z,49728.00
2023-02-28T13:25:51.305Z,49728.00
2023-02-28T13:26:04.730Z,49216.00
2023-02-28T13:26:18.531Z,48544.00
2023-02-28T13:26:32.390Z,47552.00
2023-02-28T13:26:45.002Z,47392.00
2023-02-28T13:26:57.831Z,47232.00
2023-02-28T13:27:10.746Z,46944.00
2023-02-28T13:27:23.370Z,46624.00
2023-02-28T13:27:35.905Z,46400.00
2023-02-28T13:27:48.244Z,46240.00
2023-02-28T13:28:00.501Z,45952.00
2023-02-28T13:28:14.262Z,45920.00
2023-02-28T13:28:26.143Z,45856.00
2023-02-28T13:28:39.767Z,45664.00
2023-02-28T13:28:50.619Z,45376.00
2023-02-28T13:29:02.458Z,44864.00
2023-02-28T13:29:15.040Z,44512.00
2023-02-28T13:29:27.069Z,44448.00
2023-02-28T13:29:38.184Z,44384.00
2023-02-28T13:29:50.478Z,44352.00
2023-02-28T13:30:04.072Z,44160.00
2023-02-28T13:30:16.689Z,43872.00
2023-02-28T13:30:29.775Z,43584.00
2023-02-28T13:30:42.129Z,43712.00
2023-02-28T13:30:54.655Z,44064.00
2023-02-28T13:31:07.188Z,43840.00
2023-02-28T13:31:19.968Z,43456.00
2023-02-28T13:31:32.593Z,43840.00
2023-02-28T13:31:45.523Z,43808.00
2023-02-28T13:31:59.359Z,43712.00
2023-02-28T13:32:12.777Z,43776.00
2023-02-28T13:32:26.022Z,43648.00
2023-02-28T13:32:39.555Z,43808.00
2023-02-28T13:32:51.412Z,43808.00
2023-02-28T13:33:03.253Z,43680.00
2023-02-28T13:33:15.012Z,43840.00
2023-02-28T13:33:27.558Z,43840.00
2023-02-28T13:33:39.323Z,44288.00
2023-02-28T13:33:51.758Z,44224.00
2023-02-28T13:34:02.704Z,44192.00
2023-02-28T13:34:15.272Z,44320.00
2023-02-28T13:34:26.213Z,44288.00
2023-02-28T13:34:38.867Z,44608.00
2023-02-28T13:34:51.465Z,44640.00
2023-02-28T13:35:03.714Z,44576.00
2023-02-28T13:35:16.455Z,44576.00
2023-02-28T13:35:28.601Z,44576.00
2023-02-28T13:35:41.406Z,44640.00
2023-02-28T13:35:54.727Z,44608.00
2023-02-28T13:36:06.572Z,44384.00
2023-02-28T13:36:18.485Z,44256.00
2023-02-28T13:36:30.797Z,43872.00
2023-02-28T13:36:44.640Z,43424.00
2023-02-28T13:36:57.946Z,43040.00
2023-02-28T13:37:10.508Z,43104.00
2023-02-28T13:37:23.111Z,43008.00
2023-02-28T13:37:35.425Z,42688.00
2023-02-28T13:37:48.714Z,42496.00
2023-02-28T13:38:01.515Z,42848.00
2023-02-28T13:38:14.846Z,42656.00
2023-02-28T13:38:29.215Z,42912.00
2023-02-28T13:38:42.057Z,43424.00
2023-02-28T13:38:56.350Z,43648.00
2023-02-28T13:39:09.113Z,43552.00
2023-02-28T13:39:21.025Z,43776.00
2023-02-28T13:39:35.940Z,43968.00
2023-02-28T13:39:48.815Z,44096.00
2023-02-28T13:39:59.708Z,43808.00
2023-02-28T13:40:12.696Z,43840.00
2023-02-28T13:40:24.514Z,43936.00
2023-02-28T13:40:37.097Z,44032.00
2023-02-28T13:40:52.131Z,44032.00
2023-02-28T13:41:06.020Z,44256.00
2023-02-28T13:41:19.330Z,44480.00
2023-02-28T13:41:32.026Z,44640.00
2023-02-28T13:41:44.261Z,44288.00
2023-02-28T13:41:57.966Z,44288.00
2023-02-28T13:42:10.731Z,43552.00
2023-02-28T13:42:22.983Z,43424.00
2023-02-28T13:42:33.758Z,43456.00
2023-02-28T13:42:46.572Z,43328.00
2023-02-28T13:42:59.810Z,42976.00
2023-02-28T13:43:41.768Z,0.00
2023-02-28T13:43:53.262Z,42176.00
2023-02-28T13:44:05.310Z,41920.00
2023-02-28T13:44:17.382Z,41632.00
2023-02-28T13:44:29.206Z,41376.00
2023-02-28T13:44:42.596Z,40640.00
2023-02-28T13:44:55.235Z,37792.00
2023-02-28T13:45:07.536Z,30752.00
2023-02-28T13:45:19.903Z,31520.00
2023-02-28T13:45:30.777Z,20416.00
2023-02-28T13:45:41.610Z,15512.00
2023-02-28T13:45:54.148Z,12584.00
2023-02-28T13:46:06.484Z,11372.00
2023-02-28T13:46:18.755Z,11060.00
2023-02-28T13:46:31.713Z,11452.00
2023-02-28T13:46:43.820Z,11236.00
2023-02-28T13:46:56.155Z,10572.00
2023-02-28T13:47:08.740Z,10296.00
2023-02-28T13:47:23.314Z,10144.00
2023-02-28T13:47:35.129Z,10040.00
2023-02-28T13:47:47.446Z,10144.00
2023-02-28T13:47:58.453Z,10104.00
2023-02-28T13:48:10.243Z,9928.00
2023-02-28T13:48:23.494Z,9872.00
2023-02-28T13:48:36.085Z,9764.00
2023-02-28T13:48:49.402Z,9688.00
2023-02-28T13:49:03.174Z,9692.00
2023-02-28T13:49:15.699Z,9880.00
2023-02-28T13:49:29.367Z,9836.00
2023-02-28T13:49:41.924Z,9944.00
2023-02-28T13:49:54.703Z,10404.00
2023-02-28T13:50:07.897Z,10592.00
2023-02-28T13:50:19.973Z,10552.00
2023-02-28T13:50:33.225Z,11220.00
2023-02-28T13:50:46.498Z,13704.00
2023-02-28T13:51:00.138Z,23008.00
2023-02-28T13:51:13.904Z,33408.00
2023-02-28T13:51:26.920Z,34784.00
2023-02-28T13:52:18.208Z,0.00
2023-02-28T13:52:30.511Z,37824.00
2023-02-28T13:52:48.516Z,37568.00
2023-02-28T13:53:00.463Z,37056.00
2023-02-28T13:53:13.805Z,37056.00
2023-02-28T13:53:26.174Z,36992.00
2023-02-28T13:53:38.472Z,36736.00
2023-02-28T13:53:51.426Z,36896.00
2023-02-28T13:54:04.025Z,36864.00
2023-02-28T13:54:16.842Z,36992.00
2023-02-28T13:54:31.146Z,37056.00
2023-02-28T13:54:43.985Z,37120.00
2023-02-28T13:54:54.904Z,37152.00
2023-02-28T13:55:07.565Z,37184.00
2023-02-28T13:55:18.494Z,37312.00
2023-02-28T13:55:29.404Z,37312.00
2023-02-28T13:55:42.053Z,37344.00
2023-02-28T13:55:55.320Z,37184.00
2023-02-28T13:56:07.135Z,37184.00
2023-02-28T13:56:21.398Z,36928.00
2023-02-28T13:56:34.245Z,36768.00
2023-02-28T13:56:47.312Z,36512.00
2023-02-28T13:56:59.104Z,36480.00
2023-02-28T13:57:12.405Z,36096.00
2023-02-28T13:57:26.067Z,35904.00
2023-02-28T13:57:37.869Z,35680.00
2023-02-28T13:57:50.414Z,35744.00
2023-02-28T13:58:01.278Z,35520.00
2023-02-28T13:58:13.288Z,35264.00
2023-02-28T13:58:24.182Z,35104.00
2023-02-28T13:58:35.091Z,34912.00
2023-02-28T13:58:48.932Z,34880.00
2023-02-28T13:59:00.865Z,34784.00
2023-02-28T13:59:13.342Z,34720.00
2023-02-28T13:59:25.665Z,35008.00
2023-02-28T13:59:41.527Z,35008.00
2023-02-28T13:59:53.369Z,35456.00
2023-02-28T14:00:05.271Z,35488.00
2023-02-28T14:00:17.887Z,35552.00
2023-02-28T14:00:29.867Z,35392.00
2023-02-28T14:00:42.135Z,35328.00
2023-02-28T14:00:56.945Z,35264.00
2023-02-28T14:01:12.212Z,34816.00
2023-02-28T14:01:25.584Z,34336.00
2023-02-28T14:01:40.935Z,34016.00
2023-02-28T14:01:54.469Z,33792.00
2023-02-28T14:02:06.833Z,33760.00
2023-02-28T14:02:18.696Z,33824.00
2023-02-28T14:02:32.083Z,33824.00
2023-02-28T14:02:44.702Z,33952.00
2023-02-28T14:02:56.605Z,33984.00
2023-02-28T14:03:08.485Z,33952.00
2023-02-28T14:03:21.306Z,33984.00
2023-02-28T14:03:33.155Z,33792.00
2023-02-28T14:03:47.312Z,34016.00
2023-02-28T14:03:59.125Z,34176.00
2023-02-28T14:04:11.179Z,34144.00
2023-02-28T14:04:23.060Z,34080.00
2023-02-28T14:04:33.999Z,34400.00
2023-02-28T14:04:46.275Z,34208.00
2023-02-28T14:04:59.292Z,34080.00
2023-02-28T14:05:12.068Z,34080.00
2023-02-28T14:05:25.918Z,33920.00
2023-02-28T14:05:37.954Z,33824.00
2023-02-28T14:05:50.133Z,33696.00
2023-02-28T14:06:01.981Z,33664.00
2023-02-28T14:06:13.838Z,33536.00
2023-02-28T14:06:25.648Z,33344.00
2023-02-28T14:07:00.465Z,0.00
2023-02-28T14:07:15.308Z,33120.00
2023-02-28T14:07:27.095Z,33056.00
2023-02-28T14:07:40.904Z,32800.00
2023-02-28T14:07:53.704Z,32544.00
2023-02-28T14:08:05.476Z,32640.00
2023-02-28T14:08:17.261Z,32544.00
2023-02-28T14:08:30.318Z,32416.00
2023-02-28T14:08:42.077Z,32384.00
2023-02-28T14:08:53.389Z,32352.00
2023-02-28T14:09:05.177Z,32192.00
2023-02-28T14:09:17.775Z,32352.00
2023-02-28T14:09:30.245Z,32192.00
2023-02-28T14:09:41.118Z,32256.00
2023-02-28T14:09:53.864Z,32480.00
2023-02-28T14:10:04.745Z,32352.00
2023-02-28T14:10:15.586Z,32288.00
2023-02-28T14:10:27.406Z,32448.00
2023-02-28T14:10:39.913Z,32480.00
2023-02-28T14:10:52.068Z,32352.00
2023-02-28T14:11:05.127Z,32288.00
2023-02-28T14:11:15.936Z,32384.00
2023-02-28T14:11:26.790Z,32256.00
2023-02-28T14:11:37.644Z,32128.00
2023-02-28T14:11:49.920Z,32064.00
2023-02-28T14:12:00.716Z,32000.00
2023-02-28T14:12:11.547Z,32096.00
2023-02-28T14:12:22.360Z,32000.00
2023-02-28T14:12:35.378Z,31840.00
2023-02-28T14:12:47.922Z,31936.00
2023-02-28T14:13:00.123Z,32032.00
2023-02-28T14:13:11.857Z,31712.00
2023-02-28T14:13:22.783Z,32032.00
2023-02-28T14:13:33.569Z,31968.00
2023-02-28T14:13:44.379Z,32064.00
2023-02-28T14:13:55.193Z,32128.00
2023-02-28T14:14:05.957Z,32224.00
2023-02-28T14:14:17.700Z,32256.00
2023-02-28T14:14:28.487Z,32320.00
2023-02-28T14:14:39.246Z,32384.00
2023-02-28T14:14:51.015Z,32256.00
2023-02-28T14:15:03.470Z,32192.00
2023-02-28T14:15:15.236Z,32416.00
2023-02-28T14:15:26.062Z,32352.00
2023-02-28T14:15:36.890Z,32224.00
2023-02-28T14:15:49.400Z,32128.00
2023-02-28T14:16:02.047Z,32064.00
2023-02-28T14:16:12.915Z,31872.00
2023-02-28T14:16:23.842Z,31680.00
2023-02-28T14:16:36.337Z,31712.00
2023-02-28T14:16:48.156Z,31488.00
2023-02-28T14:16:58.966Z,31264.00
2023-02-28T14:17:11.237Z,31040.00
2023-02-28T14:17:22.053Z,30656.00
2023-02-28T14:17:33.819Z,30560.00
2023-02-28T14:17:45.684Z,30432.00
2023-02-28T14:17:59.406Z,30272.00
2023-02-28T14:18:11.885Z,30400.00
2023-02-28T14:18:24.265Z,30464.00
2023-02-28T14:18:37.935Z,30528.00
2023-02-28T14:18:51.183Z,30688.00
2023-02-28T14:19:04.409Z,30912.00
2023-02-28T14:19:15.216Z,31072.00
2023-02-28T14:19:29.436Z,31072.00
2023-02-28T14:19:43.149Z,31232.00
2023-02-28T14:19:54.954Z,31488.00
2023-02-28T14:20:05.763Z,31520.00
2023-02-28T14:20:18.318Z,31712.00
2023-02-28T14:20:31.570Z,31776.00
2023-02-28T14:20:42.340Z,32192.00
2023-02-28T14:20:54.612Z,32224.00
2023-02-28T14:21:08.378Z,32256.00
2023-02-28T14:21:20.841Z,32352.00
2023-02-28T14:21:34.608Z,32192.00
2023-02-28T14:21:45.584Z,32320.00
2023-02-28T14:21:56.364Z,32160.00
2023-02-28T14:22:08.620Z,31904.00
2023-02-28T14:22:20.875Z,32032.00
2023-02-28T14:22:32.690Z,31776.00
2023-02-28T14:22:45.631Z,31616.00
2023-02-28T14:22:57.526Z,31456.00
2023-02-28T14:23:09.317Z,31424.00
2023-02-28T14:23:21.844Z,31520.00
2023-02-28T14:23:32.739Z,31904.00
2023-02-28T14:23:47.035Z,31904.00
2023-02-28T14:23:58.841Z,31776.00
2023-02-28T14:24:09.641Z,31776.00
2023-02-28T14:24:20.487Z,31776.00
2023-02-28T14:24:32.270Z,31712.00
2023-02-28T14:24:43.072Z,31552.00
2023-02-28T14:24:55.531Z,31456.00
2023-02-28T14:25:06.320Z,31008.00
2023-02-28T14:25:19.559Z,30880.00
2023-02-28T14:25:31.424Z,30848.00
2023-02-28T14:25:43.671Z,31104.00
2023-02-28T14:25:55.468Z,31424.00
2023-02-28T14:26:07.747Z,31360.00
2023-02-28T14:26:20.027Z,31360.00
2023-02-28T14:26:31.885Z,31296.00
2023-02-28T14:26:43.652Z,31392.00
2023-02-28T14:26:54.490Z,31200.00
2023-02-28T14:27:05.290Z,31104.00
2023-02-28T14:27:17.132Z,31136.00
2023-02-28T14:27:27.952Z,31232.00
2023-02-28T14:27:38.830Z,31040.00
2023-02-28T14:27:49.702Z,31040.00
2023-02-28T14:28:00.565Z,30976.00
2023-02-28T14:28:11.492Z,30784.00
2023-02-28T14:28:24.012Z,30944.00
2023-02-28T14:28:34.853Z,30784.00
2023-02-28T14:28:45.735Z,30784.00
2023-02-28T14:28:56.630Z,30752.00
2023-02-28T14:29:08.492Z,30848.00
2023-02-28T14:29:19.332Z,30848.00
2023-02-28T14:29:30.204Z,30848.00
2023-02-28T14:29:41.103Z,30784.00
2023-02-28T14:29:52.947Z,30848.00
2023-02-28T14:30:04.703Z,30880.00
2023-02-28T14:30:16.504Z,31040.00
2023-02-28T14:30:28.283Z,31232.00
2023-02-28T14:30:39.119Z,31424.00
2023-02-28T14:30:51.499Z,31360.00
2023-02-28T14:31:03.969Z,31552.00
2023-02-28T14:31:16.571Z,31552.00
2023-02-28T14:31:28.502Z,31648.00
2023-02-28T14:31:41.731Z,31360.00
2023-02-28T14:31:54.297Z,31424.00
2023-02-28T14:32:05.197Z,31584.00
2023-02-28T14:32:16.051Z,31424.00
2023-02-28T14:32:28.073Z,31424.00
2023-02-28T14:32:39.887Z,31552.00
2023-02-28T14:32:51.635Z,31584.00
2023-02-28T14:33:04.141Z,31744.00
2023-02-28T14:33:14.955Z,31584.00
2023-02-28T14:33:26.733Z,31680.00
2023-02-28T14:33:37.504Z,31680.00
2023-02-28T14:33:49.764Z,31776.00
2023-02-28T14:34:02.051Z,31808.00
2023-02-28T14:34:13.895Z,31744.00
2023-02-28T14:34:26.374Z,31616.00
2023-02-28T14:34:39.559Z,31584.00
2023-02-28T14:34:50.328Z,31520.00
2023-02-28T14:35:01.209Z,31424.00
2023-02-28T14:35:14.184Z,31360.00
2023-02-28T14:35:25.055Z,31200.00
2023-02-28T14:35:35.899Z,31072.00
2023-02-28T14:35:46.821Z,31168.00
2023-02-28T14:35:57.626Z,31200.00
2023-02-28T14:36:10.673Z,31072.00
2023-02-28T14:36:22.522Z,30944.00
2023-02-28T14:36:34.286Z,30912.00
2023-02-28T14:36:45.097Z,30976.00
2023-02-28T14:36:57.587Z,31232.00
2023-02-28T14:37:08.395Z,31136.00
2023-02-28T14:37:19.190Z,31168.00
2023-02-28T14:37:31.192Z,31008.00
2023-02-28T14:37:43.033Z,31136.00
2023-02-28T14:37:55.470Z,31072.00
2023-02-28T14:38:07.280Z,31040.00
2023-02-28T14:38:19.068Z,31008.00
2023-02-28T14:38:32.300Z,30912.00
2023-02-28T14:38:44.085Z,31040.00
2023-02-28T14:38:57.302Z,31136.00
2023-02-28T14:39:09.616Z,31264.00
2023-02-28T14:39:20.416Z,31168.00
2023-02-28T14:39:34.146Z,31104.00
2023-02-28T14:39:48.418Z,31136.00
2023-02-28T14:39:59.237Z,31200.00
2023-02-28T14:40:11.730Z,31264.00
2023-02-28T14:40:23.499Z,31232.00
2023-02-28T14:40:34.276Z,31264.00
2023-02-28T14:40:47.277Z,31264.00
2023-02-28T14:40:58.138Z,31360.00
2023-02-28T14:41:12.249Z,31328.00
2023-02-28T14:41:24.517Z,31360.00
2023-02-28T14:41:37.525Z,31392.00
2023-02-28T14:41:50.760Z,31424.00